Fidato — PB5970 — position and weather

sailwx.info

Track history (hours):
 
Tides and Currents Weather Stations Pressure Air Temp Water Temp Dewpoint Dewpoint Depression Visibility Wind Speed Wind Dir Waves Ship Positions

Fidato

Last reported at 2015-May-17 05:31 UTC. Time now 2015-May-29 08:20 UTC.
Position N 49°59' E 009°04'.
Warning: this ship's position is 12 days out of date.

Length 135 m; draft 2.5 m.

Type: Ship. MMSI: 244670975.

Date/timePositionNaut miles runAvg speedWind from/ knotsBaromVisibWave heightAir tempDewpointWater temp
2015-May-17 05:31N 49°59' E 009°04'3 3.6
2015-May-17 04:33N 50°02' E 009°02'4 3.6
2015-May-17 03:33N 50°05' E 008°58'0 0.0
2015-May-17 02:33N 50°05' E 008°58'0 0.0
2015-May-17 01:33N 50°05' E 008°58'0 0.0
2015-May-17 00:33N 50°05' E 008°58'0 0.0
2015-May-16 23:33N 50°05' E 008°58'0 0.0
2015-May-16 22:33N 50°05' E 008°58'0 0.0
2015-May-16 21:33N 50°05' E 008°58'0 0.0
2015-May-16 20:33N 50°05' E 008°58'0 0.2
2015-May-16 19:33N 50°05' E 008°58'2 2.1
2015-May-16 18:33N 50°06' E 008°56'3 2.6
2015-May-16 17:33N 50°08' E 008°52'4 3.7
2015-May-16 16:30N 50°06' E 008°46'3 3.3
2015-May-16 15:33N 50°07' E 008°41'79 2.7
2015-May-15 10:04N 50°50' E 006°59'4 4.7
2015-May-15 09:18N 50°53' E 007°03'3 3.9
2015-May-15 08:29N 50°55' E 006°59'16 4.1
2015-May-15 04:32N 51°10' E 006°51'2 2.4
2015-May-15 03:33N 51°11' E 006°48'1 1.3
2015-May-15 02:33N 51°11' E 006°46'0 0.0
2015-May-15 01:33N 51°11' E 006°46'0 0.0
2015-May-15 00:33N 51°11' E 006°46'0 0.0
2015-May-14 23:33N 51°11' E 006°46'0 0.0
2015-May-14 22:33N 51°11' E 006°46'0 0.0
2015-May-14 21:33N 51°11' E 006°46'2 2.3
2015-May-14 20:33N 51°13' E 006°44'2 2.3
2015-May-14 19:33N 51°15' E 006°45'19 3.6
2015-May-14 14:19N 51°34' E 006°41'37 4.2
2015-May-14 05:26N 51°52' E 005°49'15 1.6
2015-May-13 20:11N 51°51' E 005°25'4 5.8
2015-May-13 19:33N 51°48' E 005°21'8 5.6
2015-May-13 18:12N 51°49' E 005°09'18 6.7
2015-May-13 15:34N 51°49' E 004°40'7 6.8
2015-May-13 14:34N 51°54' E 004°33'4 3.6
2015-May-13 13:34N 51°53' E 004°27'0 0.2
2015-May-13 12:34N 51°53' E 004°27'0 0.2
2015-May-13 11:33N 51°53' E 004°26'0 0.0
2015-May-13 10:33N 51°53' E 004°26'0 0.0
2015-May-13 09:33N 51°53' E 004°26'0 0.0
2015-May-13 08:34N 51°53' E 004°26'0 0.0
2015-May-13 07:33N 51°53' E 004°26'0 0.0
2015-May-13 06:34N 51°53' E 004°26'0 0.0
2015-May-13 05:34N 51°53' E 004°26'0 0.4
2015-May-13 04:33N 51°53' E 004°27'0 0.0
2015-May-13 03:34N 51°53' E 004°27'0 0.0
2015-May-13 02:34N 51°53' E 004°27'0 0.0
2015-May-13 01:34N 51°53' E 004°27'0 0.0
2015-May-13 00:34N 51°53' E 004°27'0 0.0
2015-May-12 23:34N 51°53' E 004°27'0 0.0
2015-May-12 22:34N 51°53' E 004°27'0 0.2
2015-May-12 21:34N 51°53' E 004°27'5 5.5
2015-May-12 20:33N 51°54' E 004°36'10 8.6
2015-May-12 19:20N 51°49' E 004°51'1 0.1
2015-May-12 03:32N 51°49' E 004°53'0 0.0
2015-May-12 02:25N 51°49' E 004°53'0 0.0
2015-May-11 21:23N 51°49' E 004°53'0 0.0
2015-May-11 20:30N 51°49' E 004°53'0 0.1
2015-May-11 19:33N 51°48' E 004°53'2 1.7
2015-May-11 18:33N 51°49' E 004°50'7 6.9
2015-May-11 17:33N 51°49' E 004°39'1 1.3
2015-May-11 16:33N 51°47' E 004°39'0 0.0
2015-May-11 15:33N 51°47' E 004°38'0 0.0
2015-May-11 14:33N 51°47' E 004°38'0 0.0
2015-May-11 13:33N 51°47' E 004°38'0 0.0
2015-May-11 12:33N 51°47' E 004°38'0 0.0
2015-May-11 11:33N 51°47' E 004°38'0 0.0
2015-May-11 10:33N 51°47' E 004°38'0 0.0
2015-May-11 09:33N 51°47' E 004°38'0 0.0
2015-May-11 08:33N 51°47' E 004°39'0 0.0
2015-May-11 07:06N 51°47' E 004°38'0 0.0
2015-May-11 06:31N 51°47' E 004°38'0 0.0
2015-May-11 05:27N 51°47' E 004°38'1 0.8
2015-May-11 04:33N 51°48' E 004°38'1 1.4
2015-May-11 03:34N 51°49' E 004°39'0 0.0
2015-May-11 02:34N 51°49' E 004°39'0 0.0
2015-May-11 01:34N 51°49' E 004°39'0 0.0
2015-May-11 00:34N 51°49' E 004°39'0 0.0
2015-May-10 23:34N 51°49' E 004°39'0 0.0
2015-May-10 22:34N 51°49' E 004°39'0 0.0
2015-May-10 21:34N 51°49' E 004°39'0 0.0
2015-May-10 20:34N 51°49' E 004°39'0 0.0
2015-May-10 19:34N 51°49' E 004°39'0 0.0
2015-May-10 18:34N 51°49' E 004°39'0 0.0
2015-May-10 17:34N 51°49' E 004°39'0 0.0
2015-May-10 16:34N 51°49' E 004°39'0 0.0
2015-May-10 15:34N 51°49' E 004°39'0 0.0
2015-May-10 14:34N 51°49' E 004°39'0 0.0
2015-May-10 13:34N 51°49' E 004°39'0 0.0
2015-May-10 12:34N 51°49' E 004°39'0 0.0
2015-May-10 11:34N 51°49' E 004°39'0 0.0
2015-May-10 10:34N 51°49' E 004°39'0 0.0
2015-May-10 09:34N 51°49' E 004°39'0 0.0
2015-May-10 08:33N 51°49' E 004°39'0 0.0
2015-May-10 07:34N 51°49' E 004°39'6 6.1
2015-May-10 06:31N 51°49' E 004°50'3 3.2
2015-May-10 05:32N 51°50' E 004°55'0 0.0
2015-May-10 04:32N 51°50' E 004°55'0 0.0
2015-May-10 03:33N 51°50' E 004°55'0 0.0
2015-May-10 02:31N 51°50' E 004°55'0 0.0
2015-May-10 01:31N 51°50' E 004°55'0 0.0
2015-May-10 00:29N 51°50' E 004°55'0 0.0
2015-May-09 23:33N 51°50' E 004°55'0 0.0
2015-May-09 22:31N 51°50' E 004°55'6 4.4
2015-May-09 21:11N 51°50' E 005°04'23 8.1
2015-May-09 18:18N 51°54' E 005°42'40 7.7
2015-May-09 13:04N 51°35' E 006°39'18 6.9
2015-May-09 10:26N 51°17' E 006°42'6 6.4
2015-May-09 09:33N 51°11' E 006°44'17 6.7
2015-May-09 07:05N 50°57' E 006°58'5 8.6
2015-May-09 06:27N 50°53' E 007°03'107 5.1
2015-May-08 09:33N 49°21' E 008°30'8 7.8
2015-May-08 08:32N 49°14' E 008°24'10 9.9
2015-May-08 07:33N 49°05' E 008°21'10 9.7
2015-May-08 06:33N 48°57' E 008°12'8 7.6
2015-May-08 05:32N 48°50' E 008°07'0 0.0
2015-May-08 04:33N 48°50' E 008°07'0 0.0
2015-May-08 03:33N 48°50' E 008°07'0 0.0
2015-May-08 02:33N 48°50' E 008°07'0 0.0
2015-May-08 01:33N 48°50' E 008°07'0 0.0
2015-May-08 00:33N 48°50' E 008°07'0 0.0
2015-May-07 23:33N 48°50' E 008°07'0 0.0
2015-May-07 22:33N 48°50' E 008°07'0 0.0
2015-May-07 21:33N 48°50' E 008°07'0 0.0
2015-May-07 20:33N 48°50' E 008°07'0 0.0
2015-May-07 19:33N 48°50' E 008°07'0 0.0
2015-May-07 18:28N 48°50' E 008°07'0 0.0
2015-May-07 17:25N 48°50' E 008°07'0 0.0
2015-May-07 16:33N 48°50' E 008°07'0 0.0
2015-May-07 15:26N 48°50' E 008°07'0 0.0
2015-May-07 14:30N 48°50' E 008°07'  
Track history (hours):
 
Tides and Currents Weather Stations Pressure Air Temp Water Temp Dewpoint Dewpoint Depression Visibility Wind Speed Wind Dir Waves Ship Positions

Fidato

Last reported at 2015-May-17 05:31 UTC. Time now 2015-May-29 08:20 UTC.
Position N 49°59' E 009°04'.
Warning: this ship's position is 12 days out of date.

Length 135 m; draft 2.5 m.

Type: Ship. MMSI: 244670975.

Date/timePositionNaut miles runAvg speedWind from/ knotsBaromVisibWave heightAir tempDewpointWater temp
2015-May-17 05:31N 49°59' E 009°04'3 3.6
2015-May-17 04:33N 50°02' E 009°02'4 3.6
2015-May-17 03:33N 50°05' E 008°58'0 0.0
2015-May-17 02:33N 50°05' E 008°58'0 0.0
2015-May-17 01:33N 50°05' E 008°58'0 0.0
2015-May-17 00:33N 50°05' E 008°58'0 0.0
2015-May-16 23:33N 50°05' E 008°58'0 0.0
2015-May-16 22:33N 50°05' E 008°58'0 0.0
2015-May-16 21:33N 50°05' E 008°58'0 0.0
2015-May-16 20:33N 50°05' E 008°58'0 0.2
2015-May-16 19:33N 50°05' E 008°58'2 2.1
2015-May-16 18:33N 50°06' E 008°56'3 2.6
2015-May-16 17:33N 50°08' E 008°52'4 3.7
2015-May-16 16:30N 50°06' E 008°46'3 3.3
2015-May-16 15:33N 50°07' E 008°41'79 2.7
2015-May-15 10:04N 50°50' E 006°59'4 4.7
2015-May-15 09:18N 50°53' E 007°03'3 3.9
2015-May-15 08:29N 50°55' E 006°59'16 4.1
2015-May-15 04:32N 51°10' E 006°51'2 2.4
2015-May-15 03:33N 51°11' E 006°48'1 1.3
2015-May-15 02:33N 51°11' E 006°46'0 0.0
2015-May-15 01:33N 51°11' E 006°46'0 0.0
2015-May-15 00:33N 51°11' E 006°46'0 0.0
2015-May-14 23:33N 51°11' E 006°46'0 0.0
2015-May-14 22:33N 51°11' E 006°46'0 0.0
2015-May-14 21:33N 51°11' E 006°46'2 2.3
2015-May-14 20:33N 51°13' E 006°44'2 2.3
2015-May-14 19:33N 51°15' E 006°45'19 3.6
2015-May-14 14:19N 51°34' E 006°41'37 4.2
2015-May-14 05:26N 51°52' E 005°49'15 1.6
2015-May-13 20:11N 51°51' E 005°25'4 5.8
2015-May-13 19:33N 51°48' E 005°21'8 5.6
2015-May-13 18:12N 51°49' E 005°09'18 6.7
2015-May-13 15:34N 51°49' E 004°40'7 6.8
2015-May-13 14:34N 51°54' E 004°33'4 3.6
2015-May-13 13:34N 51°53' E 004°27'0 0.2
2015-May-13 12:34N 51°53' E 004°27'0 0.2
2015-May-13 11:33N 51°53' E 004°26'0 0.0
2015-May-13 10:33N 51°53' E 004°26'0 0.0
2015-May-13 09:33N 51°53' E 004°26'0 0.0
2015-May-13 08:34N 51°53' E 004°26'0 0.0
2015-May-13 07:33N 51°53' E 004°26'0 0.0
2015-May-13 06:34N 51°53' E 004°26'0 0.0
2015-May-13 05:34N 51°53' E 004°26'0 0.4
2015-May-13 04:33N 51°53' E 004°27'0 0.0
2015-May-13 03:34N 51°53' E 004°27'0 0.0
2015-May-13 02:34N 51°53' E 004°27'0 0.0
2015-May-13 01:34N 51°53' E 004°27'0 0.0
2015-May-13 00:34N 51°53' E 004°27'0 0.0
2015-May-12 23:34N 51°53' E 004°27'0 0.0
2015-May-12 22:34N 51°53' E 004°27'0 0.2
2015-May-12 21:34N 51°53' E 004°27'5 5.5
2015-May-12 20:33N 51°54' E 004°36'10 8.6
2015-May-12 19:20N 51°49' E 004°51'1 0.1
2015-May-12 03:32N 51°49' E 004°53'0 0.0
2015-May-12 02:25N 51°49' E 004°53'0 0.0
2015-May-11 21:23N 51°49' E 004°53'0 0.0
2015-May-11 20:30N 51°49' E 004°53'0 0.1
2015-May-11 19:33N 51°48' E 004°53'2 1.7
2015-May-11 18:33N 51°49' E 004°50'7 6.9
2015-May-11 17:33N 51°49' E 004°39'1 1.3
2015-May-11 16:33N 51°47' E 004°39'0 0.0
2015-May-11 15:33N 51°47' E 004°38'0 0.0
2015-May-11 14:33N 51°47' E 004°38'0 0.0
2015-May-11 13:33N 51°47' E 004°38'0 0.0
2015-May-11 12:33N 51°47' E 004°38'0 0.0
2015-May-11 11:33N 51°47' E 004°38'0 0.0
2015-May-11 10:33N 51°47' E 004°38'0 0.0
2015-May-11 09:33N 51°47' E 004°38'0 0.0
2015-May-11 08:33N 51°47' E 004°39'0 0.0
2015-May-11 07:06N 51°47' E 004°38'0 0.0
2015-May-11 06:31N 51°47' E 004°38'0 0.0
2015-May-11 05:27N 51°47' E 004°38'1 0.8
2015-May-11 04:33N 51°48' E 004°38'1 1.4
2015-May-11 03:34N 51°49' E 004°39'0 0.0
2015-May-11 02:34N 51°49' E 004°39'0 0.0
2015-May-11 01:34N 51°49' E 004°39'0 0.0
2015-May-11 00:34N 51°49' E 004°39'0 0.0
2015-May-10 23:34N 51°49' E 004°39'0 0.0
2015-May-10 22:34N 51°49' E 004°39'0 0.0
2015-May-10 21:34N 51°49' E 004°39'0 0.0
2015-May-10 20:34N 51°49' E 004°39'0 0.0
2015-May-10 19:34N 51°49' E 004°39'0 0.0
2015-May-10 18:34N 51°49' E 004°39'0 0.0
2015-May-10 17:34N 51°49' E 004°39'0 0.0
2015-May-10 16:34N 51°49' E 004°39'0 0.0
2015-May-10 15:34N 51°49' E 004°39'0 0.0
2015-May-10 14:34N 51°49' E 004°39'0 0.0
2015-May-10 13:34N 51°49' E 004°39'0 0.0
2015-May-10 12:34N 51°49' E 004°39'0 0.0
2015-May-10 11:34N 51°49' E 004°39'0 0.0
2015-May-10 10:34N 51°49' E 004°39'0 0.0
2015-May-10 09:34N 51°49' E 004°39'0 0.0
2015-May-10 08:33N 51°49' E 004°39'0 0.0
2015-May-10 07:34N 51°49' E 004°39'6 6.1
2015-May-10 06:31N 51°49' E 004°50'3 3.2
2015-May-10 05:32N 51°50' E 004°55'0 0.0
2015-May-10 04:32N 51°50' E 004°55'0 0.0
2015-May-10 03:33N 51°50' E 004°55'0 0.0
2015-May-10 02:31N 51°50' E 004°55'0 0.0
2015-May-10 01:31N 51°50' E 004°55'0 0.0
2015-May-10 00:29N 51°50' E 004°55'0 0.0
2015-May-09 23:33N 51°50' E 004°55'0 0.0
2015-May-09 22:31N 51°50' E 004°55'6 4.4
2015-May-09 21:11N 51°50' E 005°04'23 8.1
2015-May-09 18:18N 51°54' E 005°42'40 7.7
2015-May-09 13:04N 51°35' E 006°39'18 6.9
2015-May-09 10:26N 51°17' E 006°42'6 6.4
2015-May-09 09:33N 51°11' E 006°44'17 6.7
2015-May-09 07:05N 50°57' E 006°58'5 8.6
2015-May-09 06:27N 50°53' E 007°03'107 5.1
2015-May-08 09:33N 49°21' E 008°30'8 7.8
2015-May-08 08:32N 49°14' E 008°24'10 9.9
2015-May-08 07:33N 49°05' E 008°21'10 9.7
2015-May-08 06:33N 48°57' E 008°12'8 7.6
2015-May-08 05:32N 48°50' E 008°07'0 0.0
2015-May-08 04:33N 48°50' E 008°07'0 0.0
2015-May-08 03:33N 48°50' E 008°07'0 0.0
2015-May-08 02:33N 48°50' E 008°07'0 0.0
2015-May-08 01:33N 48°50' E 008°07'0 0.0
2015-May-08 00:33N 48°50' E 008°07'0 0.0
2015-May-07 23:33N 48°50' E 008°07'0 0.0
2015-May-07 22:33N 48°50' E 008°07'0 0.0
2015-May-07 21:33N 48°50' E 008°07'0 0.0
2015-May-07 20:33N 48°50' E 008°07'0 0.0
2015-May-07 19:33N 48°50' E 008°07'0 0.0
2015-May-07 18:28N 48°50' E 008°07'0 0.0
2015-May-07 17:25N 48°50' E 008°07'0 0.0
2015-May-07 16:33N 48°50' E 008°07'0 0.0
2015-May-07 15:26N 48°50' E 008°07'0 0.0
2015-May-07 14:30N 48°50' E 008°07'  

Dump ship's entire track history